Estación Meteorológica Peña el Pijo (Robertgarden) [ 05/25/18 12:51:23 CEST ]

Fecha Hora Presion(HPa) Temp (°C) Humedad % Rocio (°C) Viento ( m/s) Direccion Lluvia 1Hora(mm) Lluvia 24H(mm) LLuvia Total(mm)
2018-Mar-18 01:01:40 991.400 0.8 88 -1.0       13.46 163.17
2018-Mar-18 02:10:07 991.200 0.9 88 -0.9     0.51 13.98 163.68
2018-Mar-18 03:07:00 991.000 0.9 88 -0.9     0.51 14.50 164.20
2018-Mar-18 04:02:10 991.200 0.9 89 -0.8       14.50 164.20
2018-Mar-18 05:03:26 990.900 0.9 89 -0.8     0.51 14.50 164.72
2018-Mar-18 06:02:05 991.200 1.3 89 -0.4       14.50 164.72
2018-Mar-18 07:01:42 991.600 0.7 89 -0.9       14.50 164.72
2018-Mar-18 08:01:43 992.400 0.9 89 -0.8       14.50 164.72
2018-Mar-18 09:01:44 993.200 1.6 90 0.1     0.51 15.02 165.24
2018-Mar-18 10:01:39 994.200 2.7 91 1.4     1.03 16.05 166.27
2018-Mar-18 11:01:35 994.800 4.1 90 2.6     1.55 17.61 167.83
2018-Mar-18 12:01:37 995.100 6.3 85 4.1       17.61 167.83
2018-Mar-18 13:01:48 995.200 7.8 77 4.2       17.61 167.83
2018-Mar-18 14:01:34 995.000 9.1 67 3.1 2.2 NNW   17.61 167.83
2018-Mar-18 15:01:49 995.400 6.5 69 1.2       16.57 167.83
2018-Mar-18 16:01:40 995.600 8.4 66 2.4       15.54 167.83
2018-Mar-18 17:01:40 995.700 6.4 67 0.7       14.50 167.83
2018-Mar-18 18:01:37 996.500 6.3 70 1.3 0.5 NW   10.87 167.83
2018-Mar-18 19:01:25 997.200 4.8 72 0.2       9.32 167.83
2018-Mar-18 20:01:22 997.900 3.6 75 -0.4       7.77 167.83
2018-Mar-18 21:01:22 999.000 3.8 78 0.3       6.21 167.83
2018-Mar-18 22:01:47 999.800 2.1 82 -0.7     2.59 7.77 170.42
2018-Mar-18 23:01:30 1000.200 1.9 83 -0.7       7.25 170.42

Temperatura Máxima:    Temperatura Mínima:
Presión Máxima:1000.200 Hpa    Presión Mínima:990.900 Hpa


Volver